Time;durP1;ratioP1;P1;durP2;ratioP2;P2;SDS_P1;SDS_P2;PMS_P1;PMS_P2;Temp;Humidity;BMP_temperature;BMP_pressure;BME280_temperature;BME280_humidity;BME280_pressure;Samples;Min_cycle;Max_cycle;Signal;HPM_P1;HPM_P2
2022/01/16 00:00:42;;;;;;;0.10;0.10;;;;;;;;;;5058753;28;20478;-61
2022/01/16 00:06:17;;;;;;;0.10;0.10;;;;;;;;;;5037044;28;20071;-61
2022/01/16 00:08:43;;;;;;;0.43;0.43;;;;;;;;;;5016135;28;20037;-62
2022/01/16 00:11:08;;;;;;;0.38;0.38;;;;;;;;;;5050810;28;20094;-61
2022/01/16 00:13:33;;;;;;;0.10;0.10;;;;;;;;;;5054005;28;20032;-62
2022/01/16 00:15:59;;;;;;;4.63;4.28;;;;;;;;;;5053978;28;20036;-61
2022/01/16 00:18:28;;;;;;;0.10;0.10;;;;;;;;;;5072159;28;20525;-61
2022/01/16 00:20:54;;;;;;;0.10;0.10;;;;;;;;;;5053619;28;20480;-62
2022/01/16 00:23:25;;;;;;;0.10;0.10;;;;;;;;;;5054310;28;20035;-61
2022/01/16 00:25:51;;;;;;;0.22;0.22;;;;;;;;;;5037351;28;20071;-61
2022/01/16 00:28:16;;;;;;;0.10;0.10;;;;;;;;;;5071727;28;20029;-62
2022/01/16 00:30:42;;;;;;;0.10;0.10;;;;;;;;;;5054207;28;20033;-61
2022/01/16 00:33:07;;;;;;;0.20;0.20;;;;;;;;;;5072551;28;20480;-61
2022/01/16 00:35:40;;;;;;;0.10;0.10;;;;;;;;;;5054259;28;20079;-61
2022/01/16 00:38:06;;;;;;;0.10;0.10;;;;;;;;;;5054210;28;20048;-60
2022/01/16 00:40:32;;;;;;;14.20;12.90;;;;;;;;;;5071911;28;20044;-60
2022/01/16 00:42:58;;;;;;;0.30;0.30;;;;;;;;;;5071906;28;20082;-61
2022/01/16 00:45:24;;;;;;;0.10;0.10;;;;;;;;;;5037542;28;20554;-61
2022/01/16 00:47:49;;;;;;;0.10;0.10;;;;;;;;;;5053910;28;20033;-61
2022/01/16 00:50:15;;;;;;;0.10;0.10;;;;;;;;;;5071886;28;20025;-60
2022/01/16 00:52:40;;;;;;;0.20;0.20;;;;;;;;;;5071862;28;20025;-61
2022/01/16 00:55:06;;;;;;;0.43;0.43;;;;;;;;;;5054239;28;20118;-61
2022/01/16 00:57:32;;;;;;;3.50;3.30;;;;;;;;;;5071468;28;20041;-61
2022/01/16 00:59:57;;;;;;;1.15;0.60;;;;;;;;;;5037366;28;20028;-61
2022/01/16 01:02:23;;;;;;;0.55;0.55;;;;;;;;;;5071900;28;20369;-61
2022/01/16 01:04:49;;;;;;;0.10;0.10;;;;;;;;;;5071591;28;20063;-62
2022/01/16 01:07:14;;;;;;;0.10;0.10;;;;;;;;;;5071570;28;20064;-61
2022/01/16 01:09:40;;;;;;;0.10;0.10;;;;;;;;;;5071644;28;20082;-61
2022/01/16 01:12:06;;;;;;;0.10;0.10;;;;;;;;;;5071386;28;20043;-61
2022/01/16 01:14:53;;;;;;;0.28;0.28;;;;;;;;;;5053705;28;20029;-60
2022/01/16 01:17:23;;;;;;;0.10;0.10;;;;;;;;;;5037276;28;20044;-61
2022/01/16 01:19:49;;;;;;;0.10;0.10;;;;;;;;;;5037155;28;20046;-61
2022/01/16 01:22:15;;;;;;;0.30;0.30;;;;;;;;;;5053392;28;20385;-61
2022/01/16 01:24:42;;;;;;;0.10;0.10;;;;;;;;;;5071208;28;20085;-61
2022/01/16 01:27:19;;;;;;;1.00;1.00;;;;;;;;;;5053575;28;20072;-60
2022/01/16 01:29:47;;;;;;;0.10;0.10;;;;;;;;;;5071655;28;20043;-61
2022/01/16 01:32:13;;;;;;;3.03;2.92;;;;;;;;;;5037376;28;20127;-60
2022/01/16 01:34:38;;;;;;;0.13;0.13;;;;;;;;;;5057289;28;20449;-60
2022/01/16 01:37:04;;;;;;;0.65;0.65;;;;;;;;;;5074593;28;20032;-62
2022/01/16 01:39:30;;;;;;;0.65;0.65;;;;;;;;;;5074421;28;20032;-62
2022/01/16 01:42:05;;;;;;;0.65;0.65;;;;;;;;;;5074758;28;20342;-60
2022/01/16 01:52:45;;;;;;;0.10;0.10;;;;;;;;;;5074643;28;20056;-61
2022/01/16 01:55:11;;;;;;;0.10;0.10;;;;;;;;;;5074439;28;20027;-61
2022/01/16 01:57:36;;;;;;;0.10;0.10;;;;;;;;;;5074495;28;20032;-61
2022/01/16 02:00:03;;;;;;;0.28;0.28;;;;;;;;;;5074295;28;20037;-61
2022/01/16 02:02:38;;;;;;;31.88;10.10;;;;;;;;;;5056576;28;20048;-60
2022/01/16 02:05:04;;;;;;;0.10;0.10;;;;;;;;;;5039748;28;20029;-60
2022/01/16 02:07:29;;;;;;;0.10;0.10;;;;;;;;;;5074101;28;20102;-60
2022/01/16 02:09:55;;;;;;;0.10;0.10;;;;;;;;;;5074277;28;20082;-60
2022/01/16 02:12:22;;;;;;;0.10;0.10;;;;;;;;;;5074199;28;20479;-61
2022/01/16 02:15:03;;;;;;;0.55;0.55;;;;;;;;;;5039412;28;20150;-61
2022/01/16 02:31:20;;;;;;;0.30;0.30;;;;;;;;;;5056132;28;20127;-61
2022/01/16 02:36:32;;;;;;;0.10;0.10;;;;;;;;;;5055767;28;20039;-61
2022/01/16 02:38:59;;;;;;;0.10;0.10;;;;;;;;;;5073737;28;20115;-61
2022/01/16 02:41:24;;;;;;;0.10;0.10;;;;;;;;;;5039537;28;20369;-62
2022/01/16 02:43:51;;;;;;;0.68;0.65;;;;;;;;;;5073517;28;20035;-61
2022/01/16 02:48:44;;;;;;;0.50;0.50;;;;;;;;;;5055643;28;20049;-63
2022/01/16 02:51:10;;;;;;;0.22;0.22;;;;;;;;;;5073683;28;20046;-61
2022/01/16 02:53:36;;;;;;;0.10;0.10;;;;;;;;;;5073526;28;20033;-61
2022/01/16 02:56:01;;;;;;;6.22;5.93;;;;;;;;;;5073773;28;20540;-61
2022/01/16 02:58:27;;;;;;;0.10;0.10;;;;;;;;;;5039009;28;20051;-61
2022/01/16 03:00:53;;;;;;;5.45;5.10;;;;;;;;;;5055449;28;20025;-63
2022/01/16 03:03:18;;;;;;;0.10;0.10;;;;;;;;;;5039054;28;20021;-60
2022/01/16 03:05:44;;;;;;;1.55;0.75;;;;;;;;;;5073239;28;20064;-60
2022/01/16 03:08:09;;;;;;;0.10;0.10;;;;;;;;;;5073332;28;20054;-61
2022/01/16 03:13:32;;;;;;;0.10;0.10;;;;;;;;;;5064128;28;20047;-63
2022/01/16 03:15:58;;;;;;;0.30;0.30;;;;;;;;;;5038601;28;20036;-61
2022/01/16 03:23:33;;;;;;;0.10;0.10;;;;;;;;;;5073206;28;20033;-60
2022/01/16 03:25:59;;;;;;;0.10;0.10;;;;;;;;;;5038345;28;20032;-62
2022/01/16 03:28:25;;;;;;;0.10;0.10;;;;;;;;;;5038367;28;20396;-61
2022/01/16 03:30:51;;;;;;;0.10;0.10;;;;;;;;;;5038503;28;20039;-61
2022/01/16 03:33:17;;;;;;;0.10;0.10;;;;;;;;;;5073367;28;20033;-61
2022/01/16 03:35:43;;;;;;;0.10;0.10;;;;;;;;;;5038449;28;20525;-62
2022/01/16 03:38:09;;;;;;;0.10;0.10;;;;;;;;;;5038350;28;20032;-61
2022/01/16 03:40:35;;;;;;;0.20;0.20;;;;;;;;;;5054648;28;20041;-63
2022/01/16 03:43:11;;;;;;;0.10;0.10;;;;;;;;;;5054879;28;20865;-61
2022/01/16 03:45:37;;;;;;;0.10;0.10;;;;;;;;;;5055109;28;20373;-61
2022/01/16 03:48:03;;;;;;;0.30;0.30;;;;;;;;;;5038133;28;20025;-61
2022/01/16 03:50:28;;;;;;;0.20;0.20;;;;;;;;;;5073125;28;20064;-61
2022/01/16 03:52:54;;;;;;;5.93;1.98;;;;;;;;;;5072643;28;20063;-60
2022/01/16 03:55:20;;;;;;;0.10;0.10;;;;;;;;;;5071556;28;20033;-61
2022/01/16 03:57:45;;;;;;;0.25;0.25;;;;;;;;;;5054796;28;20032;-61
2022/01/16 04:00:11;;;;;;;3.55;3.45;;;;;;;;;;5072450;28;20113;-64
2022/01/16 04:02:36;;;;;;;0.73;0.73;;;;;;;;;;5070252;28;20095;-61
2022/01/16 04:05:02;;;;;;;0.15;0.15;;;;;;;;;;5068720;28;20054;-61
2022/01/16 04:07:33;;;;;;;0.20;0.20;;;;;;;;;;5050334;28;20562;-61
2022/01/16 04:09:59;;;;;;;0.40;0.40;;;;;;;;;;5068453;28;20037;-66
2022/01/16 04:12:24;;;;;;;6.75;6.32;;;;;;;;;;5050597;28;20167;-61
2022/01/16 04:17:22;;;;;;;0.10;0.10;;;;;;;;;;5068579;28;20174;-63
2022/01/16 04:19:49;;;;;;;0.60;0.60;;;;;;;;;;5068614;28;20135;-61
2022/01/16 04:22:15;;;;;;;0.47;0.47;;;;;;;;;;5034130;28;20064;-62
2022/01/16 04:24:41;;;;;;;0.20;0.20;;;;;;;;;;5033492;28;20113;-62
2022/01/16 04:27:08;;;;;;;0.10;0.10;;;;;;;;;;5033941;28;20127;-62
2022/01/16 04:29:34;;;;;;;0.20;0.20;;;;;;;;;;5069114;28;20142;-68
2022/01/16 04:31:59;;;;;;;0.17;0.17;;;;;;;;;;5050668;28;20047;-63
2022/01/16 04:34:25;;;;;;;0.10;0.10;;;;;;;;;;5068708;28;20023;-62
2022/01/16 04:36:50;;;;;;;2.45;2.35;;;;;;;;;;5068142;28;20086;-64
2022/01/16 04:39:19;;;;;;;0.10;0.10;;;;;;;;;;5068279;28;20041;-62
2022/01/16 04:44:29;;;;;;;1.08;1.08;;;;;;;;;;5068030;28;20112;-61
2022/01/16 04:46:55;;;;;;;0.10;0.10;;;;;;;;;;5049892;28;20123;-61
2022/01/16 04:49:21;;;;;;;0.20;0.20;;;;;;;;;;5049732;28;20387;-61
2022/01/16 04:51:47;;;;;;;1.20;1.10;;;;;;;;;;5068202;28;20436;-61
2022/01/16 04:54:12;;;;;;;0.10;0.10;;;;;;;;;;5033443;28;20029;-62
2022/01/16 04:56:38;;;;;;;1.42;1.33;;;;;;;;;;5067828;28;20028;-62
2022/01/16 04:59:03;;;;;;;0.10;0.10;;;;;;;;;;5068048;28;20032;-62
2022/01/16 05:01:29;;;;;;;0.10;0.10;;;;;;;;;;5068085;28;20041;-62
2022/01/16 05:03:54;;;;;;;0.10;0.10;;;;;;;;;;5067459;28;20090;-67
2022/01/16 05:06:20;;;;;;;0.10;0.10;;;;;;;;;;5068084;28;20064;-61
2022/01/16 05:08:46;;;;;;;0.30;0.30;;;;;;;;;;5036874;28;20052;-66
2022/01/16 05:11:14;;;;;;;0.10;0.10;;;;;;;;;;5071394;28;20020;-61
2022/01/16 05:18:50;;;;;;;0.10;0.10;;;;;;;;;;5070737;28;20391;-62
2022/01/16 05:21:16;;;;;;;0.13;0.13;;;;;;;;;;5053213;28;20024;-61
2022/01/16 05:23:42;;;;;;;1.17;1.17;;;;;;;;;;5071252;28;20066;-62
2022/01/16 05:26:07;;;;;;;0.10;0.10;;;;;;;;;;5071380;28;20020;-62
2022/01/16 05:28:33;;;;;;;0.10;0.10;;;;;;;;;;5070764;28;20387;-62
2022/01/16 05:30:59;;;;;;;0.10;0.10;;;;;;;;;;5052988;28;20036;-61
2022/01/16 05:33:24;;;;;;;0.17;0.17;;;;;;;;;;5052894;28;20025;-62
2022/01/16 05:35:50;;;;;;;0.17;0.17;;;;;;;;;;5036203;28;20036;-61
2022/01/16 05:38:15;;;;;;;0.10;0.10;;;;;;;;;;5070812;28;20039;-61
2022/01/16 05:40:42;;;;;;;0.20;0.20;;;;;;;;;;5070553;28;20032;-62
2022/01/16 05:43:08;;;;;;;0.10;0.10;;;;;;;;;;5052944;28;20043;-61
2022/01/16 05:45:34;;;;;;;0.13;0.13;;;;;;;;;;5052681;28;20028;-61
2022/01/16 05:47:59;;;;;;;0.10;0.10;;;;;;;;;;5052351;28;20076;-62
2022/01/16 05:50:26;;;;;;;0.10;0.10;;;;;;;;;;5070529;28;20116;-61
2022/01/16 05:52:52;;;;;;;0.10;0.10;;;;;;;;;;5052583;28;20032;-63
2022/01/16 05:55:17;;;;;;;0.10;0.10;;;;;;;;;;5053318;28;20165;-61
2022/01/16 05:57:43;;;;;;;0.10;0.10;;;;;;;;;;5070367;28;20052;-62
2022/01/16 06:00:09;;;;;;;0.47;0.47;;;;;;;;;;5052428;28;20036;-61
2022/01/16 06:02:35;;;;;;;0.10;0.10;;;;;;;;;;5070188;28;20032;-61
2022/01/16 06:05:01;;;;;;;0.50;0.50;;;;;;;;;;5035637;28;20036;-61
2022/01/16 06:07:27;;;;;;;0.10;0.10;;;;;;;;;;5035796;28;20037;-61
2022/01/16 06:09:52;;;;;;;0.57;0.57;;;;;;;;;;5070393;28;20472;-61
2022/01/16 06:12:18;;;;;;;0.20;0.20;;;;;;;;;;5070182;28;20044;-61
2022/01/16 06:14:44;;;;;;;0.10;0.10;;;;;;;;;;5052114;28;20387;-61
2022/01/16 06:17:09;;;;;;;0.10;0.10;;;;;;;;;;5070597;28;20024;-61
2022/01/16 06:19:35;;;;;;;0.10;0.10;;;;;;;;;;5069277;28;20032;-61
2022/01/16 06:22:00;;;;;;;0.15;0.15;;;;;;;;;;5052248;28;20037;-61
2022/01/16 06:24:26;;;;;;;0.10;0.10;;;;;;;;;;5070356;28;20493;-62
2022/01/16 06:26:51;;;;;;;0.10;0.10;;;;;;;;;;5052141;28;20329;-62
2022/01/16 06:29:17;;;;;;;0.10;0.10;;;;;;;;;;5070088;28;20032;-62
2022/01/16 06:31:43;;;;;;;0.13;0.13;;;;;;;;;;5070013;28;20017;-61
2022/01/16 06:34:09;;;;;;;0.15;0.15;;;;;;;;;;5051918;28;20041;-61
2022/01/16 06:36:35;;;;;;;1.52;1.45;;;;;;;;;;5070229;28;20027;-62
2022/01/16 06:39:02;;;;;;;0.13;0.13;;;;;;;;;;5080909;28;20442;-61
2022/01/16 06:41:28;;;;;;;0.10;0.10;;;;;;;;;;5035208;28;20044;-61
2022/01/16 06:43:53;;;;;;;4.72;4.47;;;;;;;;;;5069763;28;20028;-62
2022/01/16 06:46:19;;;;;;;0.10;0.10;;;;;;;;;;5069892;28;20024;-61
2022/01/16 06:48:44;;;;;;;0.10;0.10;;;;;;;;;;5069276;28;20132;-61
2022/01/16 06:51:10;;;;;;;0.20;0.20;;;;;;;;;;5052006;28;20074;-62
2022/01/16 06:53:35;;;;;;;0.20;0.20;;;;;;;;;;5069814;28;20029;-67
2022/01/16 06:56:00;;;;;;;0.20;0.20;;;;;;;;;;5069756;28;20028;-62
2022/01/16 06:58:26;;;;;;;1.95;1.75;;;;;;;;;;5069832;28;20032;-61
2022/01/16 07:00:51;;;;;;;0.10;0.10;;;;;;;;;;5069522;28;20563;-62
2022/01/16 07:03:17;;;;;;;0.10;0.10;;;;;;;;;;5051632;28;20036;-62
2022/01/16 07:05:43;;;;;;;0.10;0.10;;;;;;;;;;5034914;28;20059;-62
2022/01/16 07:08:09;;;;;;;0.10;0.10;;;;;;;;;;5051512;28;20048;-62
2022/01/16 07:10:34;;;;;;;0.10;0.10;;;;;;;;;;5075447;28;20054;-61
2022/01/16 07:13:00;;;;;;;0.10;0.10;;;;;;;;;;5074466;28;20033;-60
2022/01/16 07:15:25;;;;;;;0.10;0.10;;;;;;;;;;5072116;28;20036;-62
2022/01/16 07:17:51;;;;;;;0.20;0.20;;;;;;;;;;5079621;28;20095;-62
2022/01/16 07:20:16;;;;;;;0.25;0.25;;;;;;;;;;5074317;28;20037;-61
2022/01/16 07:22:45;;;;;;;0.40;0.40;;;;;;;;;;5051755;28;20039;-63
2022/01/16 07:25:11;;;;;;;0.20;0.20;;;;;;;;;;5071751;28;20388;-62
2022/01/16 07:27:36;;;;;;;0.22;0.22;;;;;;;;;;5064294;28;20572;-61
2022/01/16 07:30:03;;;;;;;0.20;0.20;;;;;;;;;;5085161;28;20028;-61
2022/01/16 07:32:28;;;;;;;0.20;0.20;;;;;;;;;;5071393;28;20391;-61
2022/01/16 07:34:54;;;;;;;0.20;0.20;;;;;;;;;;5085376;28;20047;-61
2022/01/16 07:37:19;;;;;;;0.20;0.20;;;;;;;;;;5087873;28;20429;-61
2022/01/16 07:39:45;;;;;;;0.28;0.28;;;;;;;;;;5089152;28;20024;-62
2022/01/16 07:42:10;;;;;;;0.20;0.20;;;;;;;;;;5089078;28;20044;-63
2022/01/16 07:44:36;;;;;;;3.53;3.40;;;;;;;;;;5051047;28;20040;-62
2022/01/16 07:47:02;;;;;;;0.15;0.15;;;;;;;;;;5078694;28;20491;-60
2022/01/16 07:49:27;;;;;;;0.28;0.28;;;;;;;;;;5078513;28;20032;-61
2022/01/16 07:51:53;;;;;;;0.25;0.25;;;;;;;;;;5053391;28;20476;-62
2022/01/16 07:54:19;;;;;;;0.32;0.32;;;;;;;;;;5096905;28;20034;-62
2022/01/16 07:56:44;;;;;;;1.52;1.48;;;;;;;;;;5109298;28;20410;-61
2022/01/16 07:59:10;;;;;;;2.13;1.95;;;;;;;;;;5090795;28;20039;-61
2022/01/16 08:01:35;;;;;;;0.70;0.70;;;;;;;;;;5109367;28;20042;-62
2022/01/16 08:04:01;;;;;;;5.32;4.90;;;;;;;;;;5109050;28;20613;-60
2022/01/16 08:06:26;;;;;;;0.43;0.43;;;;;;;;;;5073932;28;20024;-65
2022/01/16 08:08:52;;;;;;;0.20;0.20;;;;;;;;;;5108749;28;20066;-62
2022/01/16 08:11:17;;;;;;;0.20;0.20;;;;;;;;;;5109209;28;20036;-61
2022/01/16 08:13:43;;;;;;;0.73;0.73;;;;;;;;;;5108803;28;20041;-62
2022/01/16 08:16:09;;;;;;;0.30;0.30;;;;;;;;;;5091021;28;20043;-61
2022/01/16 08:18:34;;;;;;;13.52;12.52;;;;;;;;;;5081144;28;20020;-69
2022/01/16 08:21:00;;;;;;;0.50;0.50;;;;;;;;;;5050299;28;20040;-68
2022/01/16 08:23:25;;;;;;;0.20;0.20;;;;;;;;;;5068472;28;20078;-69
2022/01/16 08:25:51;;;;;;;0.77;0.77;;;;;;;;;;5050989;28;20407;-69
2022/01/16 08:28:17;;;;;;;0.20;0.20;;;;;;;;;;5068349;28;20033;-69
2022/01/16 08:30:42;;;;;;;0.35;0.35;;;;;;;;;;5067998;28;20032;-69
2022/01/16 08:33:08;;;;;;;0.20;0.20;;;;;;;;;;5068591;28;20045;-69
2022/01/16 08:35:34;;;;;;;0.30;0.30;;;;;;;;;;5050295;28;20115;-69
2022/01/16 08:37:59;;;;;;;12.27;6.68;;;;;;;;;;5070691;28;20040;-69
2022/01/16 08:40:25;;;;;;;2.78;1.65;;;;;;;;;;5076526;28;20027;-69
2022/01/16 08:42:50;;;;;;;0.28;0.28;;;;;;;;;;5078804;28;20039;-68
2022/01/16 08:45:16;;;;;;;0.22;0.22;;;;;;;;;;5081517;28;20051;-69
2022/01/16 08:47:41;;;;;;;8.05;7.57;;;;;;;;;;5081633;28;20036;-68
2022/01/16 08:50:08;;;;;;;0.30;0.30;;;;;;;;;;5076973;28;20058;-69
2022/01/16 08:52:33;;;;;;;1.20;1.15;;;;;;;;;;5043145;28;20063;-69
2022/01/16 08:55:01;;;;;;;0.40;0.40;;;;;;;;;;5085774;28;20095;-69
2022/01/16 08:57:26;;;;;;;0.20;0.20;;;;;;;;;;5091820;28;20410;-69
2022/01/16 08:59:52;;;;;;;2.05;1.95;;;;;;;;;;5091758;28;20036;-69
2022/01/16 09:02:17;;;;;;;1.55;1.45;;;;;;;;;;5066401;28;20109;-68
2022/01/16 09:04:43;;;;;;;0.70;0.70;;;;;;;;;;5089447;28;20429;-68
2022/01/16 09:07:08;;;;;;;0.88;0.88;;;;;;;;;;5071248;28;20106;-70
2022/01/16 09:09:34;;;;;;;1.25;1.23;;;;;;;;;;5089704;28;20106;-70
2022/01/16 09:12:00;;;;;;;0.30;0.30;;;;;;;;;;5057220;28;20101;-70
2022/01/16 09:14:25;;;;;;;3.45;1.60;;;;;;;;;;5069366;28;20032;-70
2022/01/16 09:16:51;;;;;;;0.30;0.30;;;;;;;;;;5068833;28;20843;-70
2022/01/16 09:19:16;;;;;;;0.38;0.38;;;;;;;;;;5070446;28;20041;-69
2022/01/16 09:21:42;;;;;;;0.20;0.20;;;;;;;;;;5070900;28;20427;-70
2022/01/16 09:24:07;;;;;;;0.57;0.57;;;;;;;;;;5069965;28;20033;-70
2022/01/16 09:26:33;;;;;;;0.30;0.30;;;;;;;;;;5068795;28;20039;-70
2022/01/16 09:28:58;;;;;;;0.32;0.32;;;;;;;;;;5069216;28;20086;-70
2022/01/16 09:31:24;;;;;;;0.32;0.32;;;;;;;;;;5050827;28;20036;-69
2022/01/16 09:33:50;;;;;;;0.32;0.32;;;;;;;;;;5050729;28;20047;-69
2022/01/16 09:36:15;;;;;;;0.40;0.40;;;;;;;;;;5034133;28;20032;-69
2022/01/16 09:38:41;;;;;;;0.40;0.40;;;;;;;;;;5069621;28;20028;-70
2022/01/16 09:41:07;;;;;;;0.30;0.30;;;;;;;;;;5036387;28;20055;-69
2022/01/16 09:43:34;;;;;;;0.43;0.43;;;;;;;;;;5070786;28;20032;-70
2022/01/16 09:46:00;;;;;;;0.70;0.70;;;;;;;;;;5052747;28;20032;-66
2022/01/16 09:48:25;;;;;;;0.30;0.30;;;;;;;;;;5052492;28;20024;-67
2022/01/16 09:50:51;;;;;;;0.20;0.20;;;;;;;;;;5035909;28;20895;-71
2022/01/16 09:53:17;;;;;;;1.35;1.20;;;;;;;;;;5069423;28;20021;-67
2022/01/16 09:55:43;;;;;;;0.30;0.30;;;;;;;;;;5036126;28;20044;-68
2022/01/16 09:58:08;;;;;;;0.30;0.30;;;;;;;;;;5053004;28;20594;-68
2022/01/16 10:00:34;;;;;;;0.20;0.20;;;;;;;;;;5070735;28;20106;-67
2022/01/16 10:02:59;;;;;;;0.40;0.40;;;;;;;;;;5070822;28;20048;-68
2022/01/16 10:05:38;;;;;;;0.32;0.32;;;;;;;;;;5070250;28;20037;-68
2022/01/16 10:08:07;;;;;;;0.85;0.85;;;;;;;;;;5052536;28;20048;-67
2022/01/16 10:10:35;;;;;;;1.63;1.52;;;;;;;;;;5050619;28;20064;-69
2022/01/16 10:13:16;;;;;;;0.20;0.20;;;;;;;;;;5070500;28;20522;-67
2022/01/16 10:15:50;;;;;;;0.70;0.70;;;;;;;;;;5070244;28;20047;-68
2022/01/16 10:18:15;;;;;;;1.30;1.08;;;;;;;;;;5070695;28;20179;-68
2022/01/16 10:20:42;;;;;;;0.30;0.30;;;;;;;;;;5070312;28;20119;-69
2022/01/16 10:23:15;;;;;;;0.55;0.55;;;;;;;;;;5034885;28;20059;-67
2022/01/16 10:25:44;;;;;;;4.78;4.35;;;;;;;;;;5033581;28;20033;-68
2022/01/16 10:28:14;;;;;;;0.40;0.40;;;;;;;;;;5033540;28;20029;-67
2022/01/16 10:30:40;;;;;;;0.20;0.20;;;;;;;;;;5033588;28;20032;-68
2022/01/16 10:33:11;;;;;;;0.30;0.30;;;;;;;;;;5033532;28;20031;-73
2022/01/16 10:35:37;;;;;;;0.28;0.28;;;;;;;;;;5033707;28;20029;-68
2022/01/16 10:38:03;;;;;;;0.65;0.65;;;;;;;;;;5035704;28;20033;-68
2022/01/16 10:40:34;;;;;;;0.30;0.30;;;;;;;;;;5051783;28;20506;-67
2022/01/16 10:43:05;;;;;;;4.50;1.60;;;;;;;;;;5035178;28;20060;-69
2022/01/16 10:45:31;;;;;;;0.73;0.73;;;;;;;;;;5051999;28;20502;-68
2022/01/16 10:47:58;;;;;;;0.98;0.98;;;;;;;;;;5035422;28;20119;-67
2022/01/16 10:50:25;;;;;;;0.20;0.20;;;;;;;;;;5052252;28;20083;-68
2022/01/16 10:52:52;;;;;;;7.18;6.53;;;;;;;;;;5035479;28;20039;-68
2022/01/16 10:55:19;;;;;;;0.20;0.20;;;;;;;;;;5051688;28;20067;-67
2022/01/16 10:57:45;;;;;;;0.82;0.82;;;;;;;;;;5034936;28;20036;-67
2022/01/16 11:00:12;;;;;;;17.90;9.82;;;;;;;;;;5069645;28;20040;-69
2022/01/16 11:02:39;;;;;;;0.40;0.40;;;;;;;;;;5034900;28;20024;-67
2022/01/16 11:05:10;;;;;;;1.55;1.45;;;;;;;;;;5051607;28;20044;-67
2022/01/16 11:07:36;;;;;;;0.20;0.20;;;;;;;;;;5069547;28;20482;-66
2022/01/16 11:10:23;;;;;;;0.43;0.43;;;;;;;;;;5051726;28;20499;-66
2022/01/16 11:12:50;;;;;;;0.30;0.30;;;;;;;;;;5019012;28;20048;-67
2022/01/16 11:15:17;;;;;;;1.92;1.83;;;;;;;;;;5035039;28;20025;-69
2022/01/16 11:17:44;;;;;;;1.35;1.25;;;;;;;;;;5056402;28;20166;-66
2022/01/16 11:20:10;;;;;;;0.30;0.30;;;;;;;;;;5078236;28;20168;-67
2022/01/16 11:25:31;;;;;;;0.70;0.70;;;;;;;;;;5086163;28;20041;-67
2022/01/16 11:28:01;;;;;;;0.40;0.40;;;;;;;;;;5063378;28;20082;-68
2022/01/16 11:30:28;;;;;;;0.20;0.20;;;;;;;;;;5049321;28;20036;-67
2022/01/16 11:32:55;;;;;;;0.40;0.40;;;;;;;;;;5070519;28;20070;-66
2022/01/16 11:35:21;;;;;;;0.50;0.50;;;;;;;;;;5069383;28;20019;-66
2022/01/16 11:37:47;;;;;;;0.30;0.30;;;;;;;;;;5052806;28;20433;-70
2022/01/16 11:40:20;;;;;;;0.43;0.43;;;;;;;;;;5052554;28;20024;-67
2022/01/16 11:43:05;;;;;;;0.85;0.82;;;;;;;;;;5067038;28;20488;-70
2022/01/16 11:45:31;;;;;;;0.40;0.40;;;;;;;;;;5073044;28;20296;-67
2022/01/16 11:47:58;;;;;;;4.25;3.83;;;;;;;;;;5050651;28;20056;-66
2022/01/16 11:50:34;;;;;;;0.38;0.38;;;;;;;;;;5034840;28;20448;-66
2022/01/16 11:53:00;;;;;;;0.40;0.40;;;;;;;;;;5053115;28;20035;-66
2022/01/16 11:55:33;;;;;;;0.88;0.85;;;;;;;;;;5054308;28;20029;-66
2022/01/16 11:58:00;;;;;;;1.73;1.63;;;;;;;;;;5064075;28;20028;-67
2022/01/16 12:00:41;;;;;;;0.98;0.98;;;;;;;;;;5088629;28;20024;-66
2022/01/16 12:03:28;;;;;;;0.63;0.63;;;;;;;;;;5070011;28;20024;-67
2022/01/16 12:06:14;;;;;;;0.30;0.30;;;;;;;;;;5087407;28;20024;-68
2022/01/16 12:08:45;;;;;;;0.30;0.30;;;;;;;;;;5086565;28;20036;-67
2022/01/16 12:11:31;;;;;;;0.25;0.25;;;;;;;;;;5069497;28;20498;-67
2022/01/16 12:13:58;;;;;;;1.50;1.40;;;;;;;;;;5068513;28;20032;-67
2022/01/16 12:17:00;;;;;;;0.70;0.70;;;;;;;;;;5079084;28;20028;-67
2022/01/16 12:19:36;;;;;;;2.53;1.77;;;;;;;;;;4973753;28;20603;-70
2022/01/16 12:22:17;;;;;;;3.15;1.70;;;;;;;;;;5043643;28;20058;-68
2022/01/16 12:24:49;;;;;;;1.00;1.00;;;;;;;;;;5067853;28;20032;-66
2022/01/16 12:27:23;;;;;;;1.27;1.17;;;;;;;;;;5054130;28;20040;-66
2022/01/16 12:30:09;;;;;;;2.83;1.38;;;;;;;;;;5070155;28;20821;-67
2022/01/16 12:32:53;;;;;;;2.28;2.08;;;;;;;;;;5070035;28;20032;-69
2022/01/16 12:35:38;;;;;;;7.18;3.45;;;;;;;;;;5070425;28;20432;-69
2022/01/16 12:38:07;;;;;;;3.13;2.45;;;;;;;;;;5088479;28;20028;-70
2022/01/16 12:40:32;;;;;;;8.13;5.30;;;;;;;;;;5088601;28;20032;-72
2022/01/16 12:43:00;;;;;;;4.65;3.33;;;;;;;;;;5088297;28;20364;-68
2022/01/16 12:45:27;;;;;;;0.52;0.52;;;;;;;;;;5070253;28;20034;-69
2022/01/16 12:47:53;;;;;;;11.40;4.28;;;;;;;;;;5070118;28;20059;-67
2022/01/16 12:50:19;;;;;;;8.95;3.25;;;;;;;;;;5069995;28;20495;-71
2022/01/16 12:52:46;;;;;;;2.17;1.98;;;;;;;;;;5070207;28;20032;-68
2022/01/16 12:55:12;;;;;;;0.35;0.35;;;;;;;;;;5069993;28;20029;-68
2022/01/16 12:57:38;;;;;;;1.83;1.65;;;;;;;;;;5053419;28;20032;-68
2022/01/16 13:00:10;;;;;;;2.80;2.13;;;;;;;;;;5087879;28;20119;-71
2022/01/16 13:02:37;;;;;;;4.03;3.15;;;;;;;;;;5053161;28;20039;-70
2022/01/16 13:05:04;;;;;;;2.95;1.70;;;;;;;;;;5070004;28;20024;-70
2022/01/16 13:07:30;;;;;;;10.70;7.10;;;;;;;;;;5053280;28;20040;-70
2022/01/16 13:09:56;;;;;;;3.92;3.05;;;;;;;;;;5069962;28;20090;-69
2022/01/16 13:12:22;;;;;;;4.35;3.08;;;;;;;;;;5087840;28;20426;-72
2022/01/16 13:14:48;;;;;;;4.95;3.78;;;;;;;;;;5088277;28;20028;-70
2022/01/16 13:17:14;;;;;;;2.53;2.30;;;;;;;;;;5069886;28;20036;-70
2022/01/16 13:19:50;;;;;;;7.43;4.53;;;;;;;;;;5069497;28;20464;-71
2022/01/16 13:22:19;;;;;;;8.77;4.90;;;;;;;;;;5053332;28;20043;-71
2022/01/16 13:24:47;;;;;;;5.20;3.13;;;;;;;;;;5080731;28;20042;-70
2022/01/16 13:27:29;;;;;;;5.90;2.28;;;;;;;;;;5050272;28;20040;-70
2022/01/16 13:29:57;;;;;;;3.03;2.80;;;;;;;;;;5036867;28;20055;-71
2022/01/16 13:32:27;;;;;;;8.80;4.97;;;;;;;;;;5036067;28;20028;-70
2022/01/16 13:34:54;;;;;;;3.28;2.42;;;;;;;;;;5036064;28;20028;-71
2022/01/16 13:37:36;;;;;;;7.45;4.35;;;;;;;;;;5036192;28;20035;-71
2022/01/16 13:40:06;;;;;;;9.23;5.03;;;;;;;;;;5036375;28;20394;-70
2022/01/16 13:42:41;;;;;;;5.85;3.53;;;;;;;;;;5053093;28;20098;-71
2022/01/16 13:45:25;;;;;;;7.30;3.60;;;;;;;;;;5036402;28;20044;-71
2022/01/16 13:47:50;;;;;;;8.02;4.90;;;;;;;;;;5071055;28;20066;-71
2022/01/16 13:50:16;;;;;;;7.28;4.68;;;;;;;;;;5070911;28;20060;-71
2022/01/16 13:52:50;;;;;;;7.43;4.75;;;;;;;;;;5070426;28;20024;-71
2022/01/16 13:55:15;;;;;;;8.07;4.93;;;;;;;;;;5070774;28;20028;-71
2022/01/16 13:57:41;;;;;;;0.63;0.63;;;;;;;;;;5035883;28;20035;-71
2022/01/16 14:00:09;;;;;;;1.95;1.50;;;;;;;;;;5052705;28;20060;-72
2022/01/16 14:02:35;;;;;;;1.27;0.75;;;;;;;;;;5070210;28;20040;-72
2022/01/16 14:05:02;;;;;;;3.58;2.45;;;;;;;;;;5070330;28;20446;-72
2022/01/16 14:07:27;;;;;;;8.73;3.78;;;;;;;;;;5052715;28;20120;-71
2022/01/16 14:09:55;;;;;;;13.45;5.57;;;;;;;;;;5052507;28;20115;-72
2022/01/16 14:12:20;;;;;;;6.05;4.57;;;;;;;;;;5036037;28;20544;-73
2022/01/16 14:14:48;;;;;;;0.38;0.32;;;;;;;;;;5052146;28;20032;-72
2022/01/16 14:17:39;;;;;;;0.47;0.47;;;;;;;;;;5070569;28;20151;-73
2022/01/16 14:20:23;;;;;;;0.68;0.68;;;;;;;;;;5070553;28;20044;-72
2022/01/16 14:22:48;;;;;;;4.97;3.38;;;;;;;;;;5051811;28;20035;-72
2022/01/16 14:25:14;;;;;;;2.83;2.25;;;;;;;;;;5070451;28;20380;-73
2022/01/16 14:27:40;;;;;;;7.57;5.35;;;;;;;;;;5070462;28;20032;-73
2022/01/16 14:30:08;;;;;;;6.28;1.45;;;;;;;;;;5070789;28;20028;-73
2022/01/16 14:32:33;;;;;;;0.25;0.25;;;;;;;;;;5035023;28;20032;-73
2022/01/16 14:34:59;;;;;;;3.45;1.85;;;;;;;;;;5070050;28;20107;-72
2022/01/16 14:37:26;;;;;;;4.95;3.03;;;;;;;;;;5052152;28;20495;-73
2022/01/16 14:39:52;;;;;;;6.22;4.68;;;;;;;;;;5051597;28;20044;-72
2022/01/16 14:42:19;;;;;;;9.75;7.00;;;;;;;;;;5035577;28;20024;-74
2022/01/16 14:44:45;;;;;;;6.13;4.53;;;;;;;;;;5069147;28;20033;-74
2022/01/16 14:47:11;;;;;;;10.35;4.70;;;;;;;;;;5033796;28;20066;-75
2022/01/16 14:49:37;;;;;;;14.15;6.88;;;;;;;;;;5051728;28;20131;-76
2022/01/16 14:52:03;;;;;;;7.95;5.20;;;;;;;;;;5051924;28;20438;-74
2022/01/16 14:54:29;;;;;;;5.70;3.83;;;;;;;;;;5069775;28;20039;-75
2022/01/16 14:56:54;;;;;;;3.97;0.95;;;;;;;;;;5069959;28;20082;-75
2022/01/16 14:59:20;;;;;;;1.65;1.35;;;;;;;;;;5050424;28;20039;-75
2022/01/16 15:01:47;;;;;;;3.65;2.72;;;;;;;;;;5046791;28;20043;-71
2022/01/16 15:04:13;;;;;;;7.53;3.60;;;;;;;;;;5030772;28;20032;-74
2022/01/16 15:06:39;;;;;;;2.67;1.77;;;;;;;;;;5031442;28;20051;-74
2022/01/16 15:09:06;;;;;;;2.28;2.03;;;;;;;;;;5032043;28;20036;-75
2022/01/16 15:11:33;;;;;;;11.10;6.70;;;;;;;;;;5032305;28;20031;-75
2022/01/16 15:13:59;;;;;;;2.88;1.92;;;;;;;;;;5066870;28;20028;-76
2022/01/16 15:16:26;;;;;;;9.50;4.47;;;;;;;;;;5034411;28;20545;-76
2022/01/16 15:18:57;;;;;;;3.72;2.67;;;;;;;;;;5032900;28;20075;-74
2022/01/16 15:21:32;;;;;;;8.73;5.07;;;;;;;;;;5033279;28;20033;-75
2022/01/16 15:23:58;;;;;;;6.75;4.22;;;;;;;;;;5034733;28;20377;-70
2022/01/16 15:26:24;;;;;;;2.50;1.90;;;;;;;;;;5034774;28;20031;-77
2022/01/16 15:28:50;;;;;;;8.20;4.68;;;;;;;;;;5069402;28;20040;-75
2022/01/16 15:31:18;;;;;;;6.18;4.00;;;;;;;;;;5051110;28;20048;-74
2022/01/16 15:33:43;;;;;;;6.60;2.95;;;;;;;;;;5051321;28;20024;-72
2022/01/16 15:36:09;;;;;;;5.93;3.15;;;;;;;;;;5068565;28;20025;-73